Aérodrome :
LOGIN :

S'inscrire | Disclaimer

   EN    FR    IT 

 










Légende :    VFR   VFR Marginal   IFR   IFR Intensif   IFR Très Intensif
Visi : 
Plafond : 
>= 8 km
>= 3000ft
5 à 8 km
1000 à 3000 ft
1500m à 5 km
500 à 1000 ft
800 à 1500m
200 à 500 ft
< 800m
< 200 ft
Symboles :   Orages  Brouillard  Fortes neiges  Fortes précipitations  Vent > 20 kt
SIGMETs :   Divers  Orages  Givrage  Turbulence  Onde Orograph.  Cendres Volcan.







- Altitude de l'aérodrome : 299 ft
- Code IATA : EDM
- Voir les cartes d'approche


LFRI - La Roche Sur Yon - Les Ajoncs

DERNIER METAR :
  • 242300Z AUTO 35002KT CAVOK 15/14 Q1015

METARs EXPIRÉS :
  • 242230Z AUTO 36003KT CAVOK 15/14 Q1016
  • 242200Z AUTO 01003KT CAVOK 16/14 Q1016
  • 242130Z AUTO 33004KT CAVOK 17/14 Q1016
  • 242100Z AUTO 33004KT CAVOK 17/14 Q1016 NOSIG
  • 242030Z AUTO 31003KT CAVOK 18/14 Q1016 NOSIG

TAF AMD TAF LFRI
Valide du 24 à 20h jusqu'au 25 à 18h UTC


242022Z 2420/2518 VRB03KT CAVOK
BECMG 2421/2424 03006KT
BECMG 2503/2505 BKN030TCU
TEMPO 2505/2518 4000 SHRA BKN025CB
PROB30
TEMPO 2509/2518 VRB15G25KT 2000 TSRA BKN020CB
Pas de NOTAMs connus pour ce terrain.



MET'MAP, la Météo Aéronautique d'un coup d'oeil ! - Copyright ORBIFLY Décembre 2007 - Disclaimer

ORBIFLY MET'MAP TEAM :

Programmation & Développement : Alexandra Zaïnal
Conception & Développement : Baudouin d'Aumeries
Co-Programmation & Développement : Marc-Olivier Méhu
Soutien technique & logistique : Manuel Goepfert

Contact : metmap@orbifly.com




SOURCES & CREDITS :

   NOAA